createdAt,value
2019-02-08T00:03:38.022Z,9.94
2019-02-08T00:06:27.287Z,9.89
2019-02-08T00:09:16.148Z,9.83
2019-02-08T00:12:05.234Z,9.78
2019-02-08T00:14:54.082Z,9.72
2019-02-08T00:17:43.099Z,9.70
2019-02-08T00:20:32.014Z,9.43
2019-02-08T00:23:26.019Z,9.66
2019-02-08T00:26:04.878Z,9.64
2019-02-08T00:28:53.772Z,9.61
2019-02-08T00:31:44.370Z,9.60
2019-02-08T00:34:33.216Z,9.08
2019-02-08T00:37:22.087Z,9.56
2019-02-08T00:40:31.831Z,9.54
2019-02-08T00:43:20.921Z,9.53
2019-02-08T00:46:09.876Z,9.51
2019-02-08T00:48:58.716Z,9.49
2019-02-08T00:51:47.556Z,9.48
2019-02-08T00:54:36.435Z,9.48
2019-02-08T00:57:25.365Z,9.39
2019-02-08T01:00:35.099Z,9.45
2019-02-08T01:03:23.988Z,9.44
2019-02-08T01:06:12.955Z,9.43
2019-02-08T01:09:01.795Z,9.41
2019-02-08T01:11:50.667Z,9.39
2019-02-08T01:14:39.578Z,9.11
2019-02-08T01:17:28.409Z,9.33
2019-02-08T01:20:38.422Z,9.29
2019-02-08T01:23:27.332Z,9.26
2019-02-08T01:26:16.137Z,9.17
2019-02-08T01:29:05.351Z,9.21
2019-02-08T01:31:54.210Z,9.17
2019-02-08T01:37:51.622Z,9.15
2019-02-08T01:40:40.622Z,9.15
2019-02-08T01:43:29.475Z,9.14
2019-02-08T01:46:18.358Z,9.14
2019-02-08T01:49:38.552Z,9.12
2019-02-08T01:52:10.107Z,9.12
2019-02-08T01:54:59.029Z,9.09
2019-02-08T01:58:09.071Z,9.08
2019-02-08T02:00:57.984Z,9.07
2019-02-08T02:03:46.902Z,8.94
2019-02-08T02:06:35.749Z,9.05
2019-02-08T02:09:24.605Z,9.04
2019-02-08T02:12:13.615Z,8.69
2019-02-08T02:15:02.417Z,9.03
2019-02-08T02:17:51.406Z,9.02
2019-02-08T02:21:01.109Z,9.03
2019-02-08T02:23:30.597Z,9.02
2019-02-08T02:26:12.386Z,9.01
2019-02-08T02:29:01.200Z,9.01
2019-02-08T02:31:50.109Z,8.62
2019-02-08T02:34:38.930Z,9.02
2019-02-08T02:37:27.885Z,9.02
2019-02-08T02:40:37.623Z,9.02
2019-02-08T02:43:26.466Z,9.03
2019-02-08T02:46:15.311Z,9.06
2019-02-08T02:49:04.183Z,9.07
2019-02-08T02:51:46.344Z,9.07
2019-02-08T02:54:35.276Z,9.08
2019-02-08T02:57:17.274Z,9.08
2019-02-08T03:00:27.028Z,9.07
2019-02-08T03:03:16.198Z,9.06
2019-02-08T03:06:05.330Z,9.06
2019-02-08T03:08:54.244Z,9.06
2019-02-08T03:11:43.053Z,9.06
2019-02-08T03:14:31.958Z,8.61
2019-02-08T03:17:20.763Z,9.07
2019-02-08T03:20:30.521Z,9.06
2019-02-08T03:23:00.145Z,9.08
2019-02-08T03:25:49.113Z,9.09
2019-02-08T03:28:38.054Z,9.11
2019-02-08T03:31:26.969Z,9.12
2019-02-08T03:34:15.807Z,9.13
2019-02-08T03:37:04.666Z,9.12
2019-02-08T03:39:53.500Z,9.12
2019-02-08T03:42:42.316Z,9.11
2019-02-08T03:48:26.772Z,9.09
2019-02-08T03:51:15.632Z,9.07
2019-02-08T03:54:04.710Z,9.06
2019-02-08T03:56:53.531Z,9.03
2019-02-08T03:59:42.415Z,8.61
2019-02-08T04:02:31.326Z,8.98
2019-02-08T04:05:20.233Z,8.95
2019-02-08T04:08:09.151Z,8.93
2019-02-08T04:10:58.014Z,8.91
2019-02-08T04:13:46.887Z,8.87
2019-02-08T04:16:35.696Z,8.86
2019-02-08T04:19:17.619Z,8.84
2019-02-08T04:22:06.540Z,8.83
2019-02-08T04:24:55.347Z,8.63
2019-02-08T04:27:44.247Z,8.83
2019-02-08T04:30:33.469Z,8.83
2019-02-08T04:33:15.009Z,8.84
2019-02-08T04:36:03.893Z,8.74
2019-02-08T04:38:52.762Z,8.55
2019-02-08T04:41:41.539Z,8.87
2019-02-08T04:44:30.365Z,8.86
2019-02-08T04:47:19.239Z,8.66
2019-02-08T04:50:28.990Z,8.85
2019-02-08T04:53:17.840Z,8.85
2019-02-08T04:55:47.298Z,8.67
2019-02-08T04:58:36.135Z,8.87
2019-02-08T05:01:24.965Z,8.67
2019-02-08T05:04:06.626Z,8.89
2019-02-08T05:06:55.439Z,8.89
2019-02-08T05:09:44.346Z,8.89
2019-02-08T05:12:33.156Z,8.91
2019-02-08T05:15:23.186Z,8.91
2019-02-08T05:18:12.855Z,8.92
2019-02-08T05:21:01.733Z,8.91
2019-02-08T05:23:50.586Z,8.92
2019-02-08T05:26:30.385Z,8.66
2019-02-08T05:29:19.301Z,8.94
2019-02-08T05:32:08.175Z,8.96
2019-02-08T05:34:57.084Z,8.97
2019-02-08T05:37:45.951Z,8.97
2019-02-08T05:40:34.843Z,8.98
2019-02-08T05:43:23.765Z,8.99
2019-02-08T05:46:12.632Z,9.00
2019-02-08T05:49:01.517Z,9.01
2019-02-08T05:51:50.316Z,9.02
2019-02-08T05:54:39.247Z,8.77
2019-02-08T05:57:29.097Z,9.00
2019-02-08T06:03:19.635Z,9.00
2019-02-08T06:06:08.552Z,9.00
2019-02-08T06:08:57.441Z,8.98
2019-02-08T06:11:46.374Z,8.97
2019-02-08T06:14:35.248Z,8.90
2019-02-08T06:17:24.100Z,8.96
2019-02-08T06:20:33.837Z,8.96
2019-02-08T06:23:22.809Z,8.96
2019-02-08T06:26:04.750Z,8.97
2019-02-08T06:28:53.665Z,8.97
2019-02-08T06:31:42.486Z,8.98
2019-02-08T06:34:31.351Z,8.66
2019-02-08T06:37:20.270Z,9.00
2019-02-08T06:40:29.974Z,9.02
2019-02-08T06:43:18.895Z,9.04
2019-02-08T06:46:07.767Z,9.06
2019-02-08T06:48:56.671Z,9.07
2019-02-08T06:51:45.514Z,9.09
2019-02-08T06:54:34.313Z,9.10
2019-02-08T07:09:34.304Z,9.16
2019-02-08T07:12:18.028Z,9.17
2019-02-08T07:21:22.786Z,9.21
2019-02-08T07:27:26.685Z,9.23
2019-02-08T07:39:44.000Z,9.34
2019-02-08T07:42:44.821Z,9.36
2019-02-08T07:46:13.615Z,9.38
2019-02-08T07:55:13.992Z,9.44
2019-02-08T08:04:48.133Z,9.50
2019-02-08T08:07:36.810Z,9.51
2019-02-08T08:16:51.553Z,9.61
2019-02-08T08:19:59.452Z,9.64
2019-02-08T08:23:07.402Z,9.69
2019-02-08T08:26:36.167Z,9.75
2019-02-08T08:29:19.376Z,9.81
2019-02-08T08:32:02.960Z,9.84
2019-02-08T08:35:30.495Z,9.46
2019-02-08T08:38:40.283Z,9.88
2019-02-08T08:42:07.866Z,9.93
2019-02-08T08:45:17.665Z,9.96
2019-02-08T08:48:27.414Z,9.98
2019-02-08T08:51:37.126Z,9.62
2019-02-08T08:55:04.668Z,10.03
2019-02-08T08:58:14.395Z,10.04
2019-02-08T09:01:41.991Z,10.05
2019-02-08T09:04:51.743Z,10.07
2019-02-08T09:08:19.279Z,10.10
2019-02-08T09:11:46.807Z,10.12
2019-02-08T09:14:56.534Z,10.15
2019-02-08T09:18:06.283Z,10.19
2019-02-08T09:21:15.998Z,10.23
2019-02-08T09:24:25.815Z,9.82
2019-02-08T09:27:33.734Z,10.29
2019-02-08T09:30:43.515Z,10.31
2019-02-08T09:33:53.323Z,10.33
2019-02-08T09:37:03.128Z,10.37
2019-02-08T09:40:30.675Z,10.41
2019-02-08T09:43:40.435Z,10.44
2019-02-08T09:47:07.994Z,10.49
2019-02-08T09:50:17.877Z,10.53
2019-02-08T09:53:45.533Z,10.58
2019-02-08T09:56:55.367Z,10.62
2019-02-08T09:59:56.134Z,10.52
2019-02-08T10:03:23.684Z,10.72
2019-02-08T10:06:55.139Z,10.76
2019-02-08T10:10:22.877Z,10.83
2019-02-08T10:13:32.777Z,10.88
2019-02-08T10:17:00.337Z,10.94
2019-02-08T10:20:27.880Z,10.60
2019-02-08T10:23:37.722Z,11.01
2019-02-08T10:27:05.271Z,11.06
2019-02-08T10:33:52.443Z,11.06
2019-02-08T10:37:02.155Z,11.07
2019-02-08T10:40:12.015Z,11.08
2019-02-08T10:43:21.843Z,11.08
2019-02-08T10:46:30.238Z,11.09
2019-02-08T10:49:39.955Z,11.12
2019-02-08T10:53:07.524Z,11.15
2019-02-08T10:56:17.284Z,11.00
2019-02-08T10:59:44.941Z,11.19
2019-02-08T11:03:12.539Z,11.23
2019-02-08T11:06:22.282Z,11.26
2019-02-08T11:09:49.820Z,11.29
2019-02-08T11:13:17.398Z,11.31
2019-02-08T11:16:44.892Z,11.33
2019-02-08T11:19:33.619Z,11.37
2019-02-08T11:22:03.109Z,11.38
2019-02-08T11:24:52.129Z,11.40
2019-02-08T11:27:34.112Z,11.40
2019-02-08T11:30:22.988Z,11.43
2019-02-08T11:33:11.922Z,11.45
2019-02-08T11:36:00.851Z,11.01
2019-02-08T11:38:49.727Z,11.45
2019-02-08T11:41:38.677Z,11.52
2019-02-08T11:44:27.634Z,11.53
2019-02-08T11:47:16.541Z,11.56
2019-02-08T11:50:26.256Z,11.57
2019-02-08T11:53:15.195Z,11.58
2019-02-08T11:56:04.375Z,11.59
2019-02-08T11:58:53.267Z,11.63
2019-02-08T12:04:38.048Z,11.70
2019-02-08T12:07:26.997Z,11.74
2019-02-08T12:10:16.002Z,11.75
2019-02-08T12:13:04.895Z,11.77
2019-02-08T12:15:53.827Z,11.41
2019-02-08T12:18:42.640Z,11.78
2019-02-08T12:21:31.560Z,11.47
2019-02-08T12:24:20.451Z,11.77
2019-02-08T12:27:09.409Z,11.79
2019-02-08T12:29:38.882Z,11.79
2019-02-08T12:32:27.728Z,11.81
2019-02-08T12:35:16.665Z,11.80
2019-02-08T12:38:05.608Z,11.81
2019-02-08T12:40:54.529Z,11.80
2019-02-08T12:43:43.497Z,11.36
2019-02-08T12:46:32.449Z,11.37
2019-02-08T12:49:21.326Z,11.79
2019-02-08T12:52:10.140Z,11.78
2019-02-08T12:54:58.983Z,11.77
2019-02-08T12:57:47.999Z,11.75
2019-02-08T13:00:36.935Z,11.72
2019-02-08T13:03:25.792Z,11.73
2019-02-08T13:06:14.650Z,11.73
2019-02-08T13:12:14.436Z,11.73
2019-02-08T13:18:18.432Z,11.73
2019-02-08T13:21:07.333Z,11.61
2019-02-08T13:23:36.853Z,11.71
2019-02-08T13:26:25.789Z,11.67
2019-02-08T13:29:07.117Z,11.64
2019-02-08T13:31:56.048Z,11.32
2019-02-08T13:34:44.975Z,11.58
2019-02-08T13:37:33.844Z,11.54
2019-02-08T13:40:42.150Z,11.51
2019-02-08T13:43:31.091Z,11.48
2019-02-08T13:46:19.985Z,11.45
2019-02-08T13:49:08.831Z,11.43
2019-02-08T13:51:57.664Z,11.41
2019-02-08T13:54:46.584Z,11.39
2019-02-08T13:57:35.130Z,11.42
2019-02-08T14:00:43.362Z,11.42
2019-02-08T14:03:32.339Z,11.42
2019-02-08T14:06:21.214Z,11.39
2019-02-08T14:09:10.306Z,11.39
2019-02-08T14:11:59.168Z,11.40
2019-02-08T14:14:48.137Z,11.19
2019-02-08T14:17:37.340Z,11.39
2019-02-08T14:20:47.260Z,11.40
2019-02-08T14:23:39.150Z,11.40
2019-02-08T14:26:28.041Z,11.42
2019-02-08T14:29:09.812Z,11.43
2019-02-08T14:31:58.862Z,11.45
2019-02-08T14:35:02.124Z,11.46
2019-02-08T14:37:38.579Z,11.07
2019-02-08T14:40:48.417Z,11.45
2019-02-08T14:43:37.419Z,11.46
2019-02-08T14:46:26.376Z,11.30
2019-02-08T14:49:15.327Z,11.49
2019-02-08T14:52:04.325Z,11.50
2019-02-08T14:54:53.183Z,11.51
2019-02-08T14:57:42.186Z,11.39
2019-02-08T15:03:26.616Z,11.53
2019-02-08T15:06:08.257Z,11.55
2019-02-08T15:09:09.148Z,11.16
2019-02-08T15:11:47.850Z,11.53
2019-02-08T15:14:36.790Z,11.53
2019-02-08T15:17:25.707Z,11.51
2019-02-08T15:20:34.578Z,11.50
2019-02-08T15:23:23.378Z,11.49
2019-02-08T15:26:12.304Z,11.49
2019-02-08T15:31:38.004Z,11.48
2019-02-08T15:34:07.683Z,11.46
2019-02-08T15:37:15.715Z,11.46
2019-02-08T15:40:25.441Z,11.44
2019-02-08T15:43:14.930Z,11.42
2019-02-08T15:46:04.105Z,11.39
2019-02-08T15:48:33.757Z,11.37
2019-02-08T15:51:22.669Z,11.34
2019-02-08T15:54:11.513Z,11.31
2019-02-08T15:57:00.389Z,11.31
2019-02-08T15:59:49.229Z,11.31
2019-02-08T16:02:38.100Z,10.93
2019-02-08T16:05:47.846Z,11.30
2019-02-08T16:08:36.833Z,11.30
2019-02-08T16:11:25.757Z,11.29
2019-02-08T16:14:14.646Z,10.79
2019-02-08T16:17:03.578Z,11.26
2019-02-08T16:19:52.436Z,11.23
2019-02-08T16:22:41.324Z,11.20
2019-02-08T16:25:49.497Z,11.21
2019-02-08T16:28:18.999Z,11.18
2019-02-08T16:30:48.571Z,11.14
2019-02-08T16:33:37.504Z,11.11
2019-02-08T16:36:26.426Z,11.09
2019-02-08T16:38:55.912Z,11.02
2019-02-08T16:41:44.726Z,11.04
2019-02-08T16:44:33.640Z,11.02
2019-02-08T16:47:22.618Z,11.02
2019-02-08T16:50:32.371Z,11.02
2019-02-08T16:53:02.039Z,11.01
2019-02-08T16:55:51.042Z,11.03
2019-02-08T16:58:39.993Z,10.78
2019-02-08T17:01:28.848Z,11.05
2019-02-08T17:04:17.721Z,11.08
2019-02-08T17:06:47.401Z,10.70
2019-02-08T17:09:36.330Z,11.10
2019-02-08T17:12:05.991Z,11.09
2019-02-08T17:14:54.882Z,11.08
2019-02-08T17:17:43.734Z,11.02
2019-02-08T17:20:51.874Z,11.05
2019-02-08T17:23:21.491Z,11.03
2019-02-08T17:26:10.417Z,10.99
2019-02-08T17:28:39.941Z,10.98
2019-02-08T17:31:28.747Z,10.96
2019-02-08T17:34:17.606Z,10.94
2019-02-08T17:37:06.489Z,10.94
2019-02-08T17:39:55.391Z,10.94
2019-02-08T17:42:44.623Z,10.93
2019-02-08T17:45:33.537Z,10.52
2019-02-08T17:48:22.338Z,10.93
2019-02-08T17:51:11.232Z,10.93
2019-02-08T17:54:00.132Z,10.94
2019-02-08T17:56:29.629Z,10.97
2019-02-08T17:59:18.549Z,10.99
2019-02-08T18:01:48.241Z,11.02
2019-02-08T18:04:37.106Z,11.04
2019-02-08T18:07:25.940Z,11.05
2019-02-08T18:10:35.714Z,11.09
2019-02-08T18:13:24.580Z,11.10
2019-02-08T18:16:13.378Z,11.13
2019-02-08T18:19:02.230Z,11.15
2019-02-08T18:21:51.108Z,11.16
2019-02-08T18:24:39.948Z,11.17
2019-02-08T18:27:22.145Z,11.07
2019-02-08T18:30:32.018Z,11.19
2019-02-08T18:33:20.862Z,11.19
2019-02-08T18:36:09.720Z,11.15
2019-02-08T18:38:58.614Z,11.20
2019-02-08T18:41:47.425Z,10.78
2019-02-08T18:44:36.277Z,11.23
2019-02-08T18:47:06.017Z,11.24
2019-02-08T18:49:54.940Z,11.24
2019-02-08T18:52:43.749Z,11.02
2019-02-08T18:55:32.835Z,11.25
2019-02-08T18:58:21.725Z,11.27
2019-02-08T19:01:10.677Z,11.27
2019-02-08T19:03:59.590Z,11.29
2019-02-08T19:06:41.098Z,11.31
2019-02-08T19:09:22.863Z,11.32
2019-02-08T19:12:11.801Z,11.31
2019-02-08T19:15:00.765Z,11.33
2019-02-08T19:17:49.719Z,11.35
2019-02-08T19:20:38.638Z,11.36
2019-02-08T19:23:27.514Z,11.36
2019-02-08T19:26:16.459Z,11.38
2019-02-08T19:29:05.338Z,11.38
2019-02-08T19:31:46.869Z,11.39
2019-02-08T19:34:35.756Z,11.03
2019-02-08T19:37:24.809Z,11.40
2019-02-08T19:39:54.305Z,11.40
2019-02-08T19:42:43.216Z,11.39
2019-02-08T19:45:32.167Z,11.39
2019-02-08T19:48:21.031Z,11.38
2019-02-08T19:51:09.956Z,11.38
2019-02-08T19:57:08.279Z,11.40
2019-02-08T19:59:37.975Z,11.41
2019-02-08T20:02:26.824Z,11.43
2019-02-08T20:05:36.583Z,11.43
2019-02-08T20:08:25.642Z,11.44
2019-02-08T20:11:14.664Z,11.45
2019-02-08T20:14:24.246Z,11.45
2019-02-08T20:17:13.124Z,11.47
2019-02-08T20:20:02.134Z,11.48
2019-02-08T20:22:51.080Z,11.48
2019-02-08T20:25:40.100Z,11.48
2019-02-08T20:28:29.027Z,11.47
2019-02-08T20:31:18.005Z,11.47
2019-02-08T20:33:59.481Z,11.47
2019-02-08T20:36:48.384Z,11.47
2019-02-08T20:39:37.314Z,11.48
2019-02-08T20:42:26.215Z,11.48
2019-02-08T20:45:35.974Z,11.49
2019-02-08T20:48:24.924Z,11.51
2019-02-08T20:51:26.081Z,11.51
2019-02-08T20:57:33.113Z,11.49
2019-02-08T21:00:42.916Z,11.49
2019-02-08T21:03:31.857Z,11.49
2019-02-08T21:06:20.687Z,11.49
2019-02-08T21:09:30.428Z,11.50
2019-02-08T21:12:19.241Z,11.49
2019-02-08T21:15:29.003Z,11.49
2019-02-08T21:18:17.808Z,11.48
2019-02-08T21:20:59.383Z,11.48
2019-02-08T21:23:48.284Z,11.47
2019-02-08T21:26:37.181Z,11.14
2019-02-08T21:29:26.122Z,11.45
2019-02-08T21:32:15.029Z,11.45
2019-02-08T21:38:12.485Z,10.98
2019-02-08T21:41:01.322Z,11.38
2019-02-08T21:43:50.274Z,11.35
2019-02-08T21:46:39.078Z,11.33
2019-02-08T21:49:27.919Z,11.30
2019-02-08T21:52:16.817Z,11.08
2019-02-08T21:55:26.680Z,11.23
2019-02-08T21:58:15.506Z,11.20
2019-02-08T22:01:05.338Z,11.18
2019-02-08T22:03:54.168Z,11.15
2019-02-08T22:06:43.080Z,11.15
2019-02-08T22:09:32.124Z,11.13
2019-02-08T22:12:20.983Z,11.14
2019-02-08T22:15:30.327Z,11.14
2019-02-08T22:18:19.246Z,11.17
2019-02-08T22:21:08.096Z,11.18
2019-02-08T22:23:56.921Z,11.21
2019-02-08T22:26:45.763Z,11.21
2019-02-08T22:29:34.649Z,11.23
2019-02-08T22:32:23.577Z,11.25
2019-02-08T22:35:07.091Z,11.27
2019-02-08T22:37:56.029Z,11.29
2019-02-08T22:40:44.911Z,11.30
2019-02-08T22:43:34.165Z,11.32
2019-02-08T22:46:24.402Z,11.34
2019-02-08T22:49:13.262Z,11.35
2019-02-08T22:52:02.092Z,11.37
2019-02-08T22:54:50.974Z,10.99
2019-02-08T22:57:39.823Z,11.07
2019-02-08T23:01:07.371Z,11.38
2019-02-08T23:03:49.682Z,11.34
2019-02-08T23:06:44.649Z,11.39
2019-02-08T23:09:29.215Z,11.40
2019-02-08T23:12:18.018Z,11.40
2019-02-08T23:15:27.780Z,11.38
2019-02-08T23:18:16.613Z,11.37
2019-02-08T23:21:26.421Z,11.36
2019-02-08T23:24:15.378Z,11.36
2019-02-08T23:27:06.831Z,11.35
2019-02-08T23:30:16.573Z,11.35
2019-02-08T23:33:08.042Z,11.35
2019-02-08T23:35:56.894Z,11.36
2019-02-08T23:38:45.831Z,11.36
2019-02-08T23:41:34.778Z,11.36
2019-02-08T23:44:23.642Z,10.91
2019-02-08T23:47:12.495Z,11.37
2019-02-08T23:50:01.483Z,11.35
2019-02-08T23:52:31.143Z,11.36
2019-02-08T23:55:40.898Z,11.34
2019-02-08T23:58:29.807Z,11.34
